KILE/ILE METAR and TAF weather

Enter ICAO airport designator
Station Type Date Time Source
KILE METAR 2020/01/19 13:56 UTC NOAA

KILE 191356Z AUTO 36009KT 10SM CLR 03/M08 A3053 RMK AO2 SLP339 T00331083


Station Type Date Time Source
KILE Decoded METAR 2020/01/19 13:56 UTC NOAA

Killeen, Skylark Field Airport, TX, United States (KILE) 31-05N 097-41W
Jan 19, 2020 - 08:56 AM EST / 2020.01.19 1356 UTC
Wind: from the N (360 degrees) at 10 MPH (9 KT):0
Visibility: 10 mile(s):0
Sky conditions: clear
Temperature: 37.9 F (3.3 C)
Dew Point: 17.1 F (-8.3 C)
Relative Humidity: 42%
Pressure (altimeter): 30.53 in. Hg (1033 hPa)
ob: KILE 191356Z AUTO 36009KT 10SM CLR 03/M08 A3053 RMK AO2 SLP339 T00331083
cycle: 14

Station Type Date Time Source
KILE TAF UTC NOAA

Error!

Example: see airport list